Terminal Aerodrome Forecast
Issued by NWS

Home | Current Version | Previous Version | Text Only | Print | Product List | Glossary On
Versions: 1 2 3 4 5 6 7 8 9 10 11 12 13 14 15 16 17 18 19 20 21 22 23 24 25 26 27 28 29 30
000
FTUS41 KBOX 240822 AAA
TAFBAF
TAF AMD
KBAF 240822Z 2408/2506 VRB03KT P6SM SCT008 BKN025 BKN080
     FM241200 01008KT P6SM BKN050
     FM241600 01008KT P6SM SCT050
     FM241800 01007KT P6SM SCT250
     FM250500 VRB03KT P6SM FEW250=

USA.gov is the U.S. government's official web portal to all federal, state and local government web resources and services.